createdAt,value
2023-01-20T00:01:38.424Z,9.53
2023-01-20T00:04:05.659Z,14.07
2023-01-20T00:06:33.068Z,9.17
2023-01-20T00:09:00.819Z,11.27
2023-01-20T00:11:28.692Z,10.80
2023-01-20T00:13:56.492Z,8.23
2023-01-20T00:16:24.045Z,9.67
2023-01-20T00:18:51.350Z,8.27
2023-01-20T00:21:18.779Z,8.00
2023-01-20T00:23:46.712Z,9.50
2023-01-20T00:26:17.779Z,8.40
2023-01-20T00:28:45.292Z,10.27
2023-01-20T00:31:15.486Z,9.90
2023-01-20T00:33:42.968Z,8.03
2023-01-20T00:36:10.571Z,9.53
2023-01-20T00:38:37.747Z,13.83
2023-01-20T00:41:05.164Z,9.60
2023-01-20T00:43:32.313Z,9.27
2023-01-20T00:45:59.389Z,11.23
2023-01-20T00:48:26.468Z,9.70
2023-01-20T00:50:53.577Z,7.77
2023-01-20T00:53:20.644Z,10.13
2023-01-20T00:55:47.718Z,9.27
2023-01-20T00:58:14.830Z,8.27
2023-01-20T01:00:41.981Z,11.33
2023-01-20T01:03:10.558Z,8.53
2023-01-20T01:05:37.709Z,11.73
2023-01-20T01:08:05.164Z,9.50
2023-01-20T01:10:32.342Z,11.30
2023-01-20T01:13:00.397Z,9.67
2023-01-20T01:15:28.000Z,10.23
2023-01-20T01:17:55.663Z,9.60
2023-01-20T01:20:22.719Z,8.73
2023-01-20T01:22:49.781Z,9.80
2023-01-20T01:25:16.865Z,10.60
2023-01-20T01:27:43.929Z,10.37
2023-01-20T01:30:11.601Z,11.00
2023-01-20T01:32:39.160Z,7.23
2023-01-20T01:35:06.465Z,9.47
2023-01-20T01:37:33.526Z,7.83
2023-01-20T01:40:00.652Z,10.30
2023-01-20T01:42:27.728Z,9.80
2023-01-20T01:45:13.865Z,9.57
2023-01-20T01:47:43.423Z,9.37
2023-01-20T01:50:12.453Z,10.53
2023-01-20T01:52:40.968Z,10.53
2023-01-20T01:55:08.752Z,9.00
2023-01-20T01:57:35.988Z,12.93
2023-01-20T02:00:04.389Z,9.17
2023-01-20T02:02:31.516Z,10.27
2023-01-20T02:04:58.605Z,10.90
2023-01-20T02:07:26.347Z,9.20
2023-01-20T02:09:53.732Z,9.80
2023-01-20T02:12:22.789Z,13.83
2023-01-20T02:14:52.467Z,10.30
2023-01-20T02:17:25.176Z,10.77
2023-01-20T02:20:01.495Z,12.73
2023-01-20T02:22:34.083Z,9.53
2023-01-20T02:25:06.621Z,10.83
2023-01-20T02:27:33.652Z,12.03
2023-01-20T02:30:00.698Z,11.80
2023-01-20T02:32:35.978Z,11.60
2023-01-20T02:35:03.184Z,10.30
2023-01-20T02:37:34.264Z,9.73
2023-01-20T02:40:11.079Z,11.57
2023-01-20T02:42:41.140Z,9.90
2023-01-20T02:45:18.095Z,12.00
2023-01-20T02:47:53.073Z,14.43
2023-01-20T02:50:29.648Z,10.20
2023-01-20T02:52:59.351Z,10.40
2023-01-20T02:55:30.331Z,10.73
2023-01-20T02:58:01.672Z,10.13
2023-01-20T03:00:33.042Z,12.37
2023-01-20T03:03:02.421Z,13.57
2023-01-20T03:05:34.001Z,11.97
2023-01-20T03:08:03.176Z,11.87
2023-01-20T03:10:32.269Z,10.63
2023-01-20T03:13:03.648Z,10.40
2023-01-20T03:15:40.148Z,12.77
2023-01-20T03:18:07.213Z,12.17
2023-01-20T03:20:34.415Z,12.07
2023-01-20T03:23:01.464Z,10.40
2023-01-20T03:25:28.553Z,12.33
2023-01-20T03:27:55.604Z,11.50
2023-01-20T03:30:24.890Z,10.77
2023-01-20T03:32:52.382Z,11.27
2023-01-20T03:35:19.704Z,12.20
2023-01-20T03:37:46.863Z,13.23
2023-01-20T03:40:15.299Z,12.60
2023-01-20T03:42:45.857Z,12.30
2023-01-20T03:45:20.135Z,12.40
2023-01-20T03:47:47.176Z,12.07
2023-01-20T03:50:17.393Z,10.90
2023-01-20T03:52:48.702Z,9.97
2023-01-20T03:55:16.157Z,10.33
2023-01-20T03:57:46.157Z,14.63
2023-01-20T04:00:13.786Z,10.47
2023-01-20T04:02:41.035Z,11.57
2023-01-20T04:05:08.799Z,10.70
2023-01-20T04:07:36.195Z,10.63
2023-01-20T04:10:07.918Z,16.40
2023-01-20T04:12:35.080Z,12.33
2023-01-20T04:15:02.173Z,11.57
2023-01-20T04:17:29.747Z,10.83
2023-01-20T04:19:57.323Z,10.13
2023-01-20T04:22:27.361Z,12.97
2023-01-20T04:24:55.997Z,10.93
2023-01-20T04:27:23.039Z,10.80
2023-01-20T04:29:50.240Z,10.73
2023-01-20T04:32:17.286Z,11.00
2023-01-20T04:34:44.375Z,11.03
2023-01-20T04:37:11.427Z,12.37
2023-01-20T04:39:38.486Z,12.57
2023-01-20T04:42:05.575Z,11.83
2023-01-20T04:44:32.671Z,14.47
2023-01-20T04:46:59.759Z,12.43
2023-01-20T04:49:26.817Z,10.13
2023-01-20T04:51:53.950Z,12.23
2023-01-20T04:54:21.014Z,11.60
2023-01-20T04:56:51.202Z,14.33
2023-01-20T04:59:18.316Z,13.67
2023-01-20T05:01:45.495Z,11.37
2023-01-20T05:04:12.619Z,10.27
2023-01-20T05:06:42.676Z,12.00
2023-01-20T05:09:14.101Z,10.30
2023-01-20T05:11:41.302Z,13.47
2023-01-20T05:14:08.346Z,10.97
2023-01-20T05:16:35.453Z,18.20
2023-01-20T05:19:02.490Z,12.40
2023-01-20T05:21:29.599Z,14.77
2023-01-20T05:23:57.191Z,11.87
2023-01-20T05:26:24.544Z,13.60
2023-01-20T05:28:51.595Z,14.93
2023-01-20T05:31:18.723Z,13.77
2023-01-20T05:33:45.867Z,13.53
2023-01-20T05:36:13.016Z,13.23
2023-01-20T05:38:40.209Z,13.47
2023-01-20T05:41:08.572Z,15.40
2023-01-20T05:43:35.674Z,14.00
2023-01-20T05:46:03.772Z,13.07
2023-01-20T05:48:30.910Z,15.17
2023-01-20T05:50:57.979Z,11.13
2023-01-20T05:53:25.049Z,12.43
2023-01-20T05:55:59.703Z,12.10
2023-01-20T05:58:27.009Z,13.27
2023-01-20T06:00:54.105Z,13.97
2023-01-20T06:03:21.179Z,15.30
2023-01-20T06:05:49.397Z,12.10
2023-01-20T06:08:16.512Z,11.40
2023-01-20T06:10:43.574Z,12.83
2023-01-20T06:13:10.679Z,12.43
2023-01-20T06:15:37.728Z,12.10
2023-01-20T06:18:04.930Z,14.97
2023-01-20T06:20:32.031Z,14.83
2023-01-20T06:22:59.091Z,13.17
2023-01-20T06:25:26.150Z,12.87
2023-01-20T06:27:53.221Z,12.90
2023-01-20T06:30:20.332Z,12.87
2023-01-20T06:32:48.368Z,15.40
2023-01-20T06:35:15.934Z,13.83
2023-01-20T06:37:43.184Z,13.57
2023-01-20T06:40:10.592Z,13.23
2023-01-20T06:42:37.698Z,17.30
2023-01-20T06:45:04.897Z,14.93
2023-01-20T06:47:31.983Z,14.33
2023-01-20T06:49:59.056Z,15.17
2023-01-20T06:52:26.153Z,16.60
2023-01-20T06:54:53.249Z,14.07
2023-01-20T06:57:20.316Z,19.57
2023-01-20T06:59:47.419Z,18.47
2023-01-20T07:02:14.591Z,15.73
2023-01-20T07:04:42.726Z,12.37
2023-01-20T07:07:11.883Z,19.17
2023-01-20T07:09:38.961Z,16.37
2023-01-20T07:12:06.143Z,14.70
2023-01-20T07:14:33.205Z,19.00
2023-01-20T07:17:00.242Z,16.93
2023-01-20T07:19:27.330Z,17.63
2023-01-20T07:21:54.394Z,13.77
2023-01-20T07:24:21.471Z,14.13
2023-01-20T07:26:48.516Z,20.17
2023-01-20T07:29:17.798Z,15.20
2023-01-20T07:31:45.724Z,16.53
2023-01-20T07:34:30.769Z,17.33
2023-01-20T07:36:57.882Z,17.83
2023-01-20T07:39:24.921Z,14.40
2023-01-20T07:41:52.002Z,18.53
2023-01-20T07:44:20.258Z,19.63
2023-01-20T07:46:47.407Z,15.63
2023-01-20T07:49:14.513Z,19.13
2023-01-20T07:51:43.240Z,21.20
2023-01-20T07:54:11.839Z,19.73
2023-01-20T07:56:38.935Z,20.50
2023-01-20T07:59:06.363Z,16.00
2023-01-20T08:01:33.784Z,22.03
2023-01-20T08:04:00.995Z,16.93
2023-01-20T08:06:28.683Z,19.00
2023-01-20T08:08:58.635Z,16.10
2023-01-20T08:11:25.915Z,20.87
2023-01-20T08:13:53.237Z,16.27
2023-01-20T08:16:20.781Z,17.23
2023-01-20T08:18:47.877Z,23.87
2023-01-20T08:21:25.263Z,20.47
2023-01-20T08:23:52.685Z,15.63
2023-01-20T08:26:19.861Z,20.90
2023-01-20T08:28:47.314Z,24.53
2023-01-20T08:31:16.301Z,19.53
2023-01-20T08:33:43.882Z,26.67
2023-01-20T08:36:12.493Z,17.17
2023-01-20T08:38:39.984Z,24.60
2023-01-20T08:41:10.950Z,22.47
2023-01-20T08:43:38.077Z,18.13
2023-01-20T08:46:07.354Z,16.40
2023-01-20T08:48:34.880Z,19.20
2023-01-20T08:51:04.500Z,20.77
2023-01-20T08:53:31.722Z,19.60
2023-01-20T08:55:59.292Z,23.17
2023-01-20T08:58:26.465Z,18.77
2023-01-20T09:00:54.218Z,17.03
2023-01-20T09:03:21.377Z,19.40
2023-01-20T09:05:48.906Z,20.77
2023-01-20T09:08:17.388Z,20.10
2023-01-20T09:10:45.296Z,16.73
2023-01-20T09:13:12.584Z,21.03
2023-01-20T09:15:39.716Z,21.47
2023-01-20T09:18:06.828Z,19.63
2023-01-20T09:20:33.935Z,18.17
2023-01-20T09:23:03.910Z,15.73
2023-01-20T09:25:30.997Z,23.33
2023-01-20T09:28:01.388Z,15.70
2023-01-20T09:30:28.740Z,19.27
2023-01-20T09:32:57.920Z,17.63
2023-01-20T09:35:25.059Z,25.43
2023-01-20T09:38:10.851Z,21.83
2023-01-20T09:41:25.556Z,18.33
2023-01-20T09:44:03.851Z,23.53
2023-01-20T09:46:37.738Z,14.83
2023-01-20T09:49:29.599Z,20.80
2023-01-20T09:52:30.361Z,16.07
2023-01-20T09:55:00.927Z,17.73
2023-01-20T09:57:30.738Z,20.43
2023-01-20T10:00:02.532Z,20.93
2023-01-20T10:02:32.795Z,18.10
2023-01-20T10:05:01.150Z,18.07
2023-01-20T10:07:37.623Z,17.63
2023-01-20T10:10:10.673Z,20.13
2023-01-20T10:13:06.953Z,19.97
2023-01-20T10:15:35.782Z,18.37
2023-01-20T10:18:09.257Z,21.00
2023-01-20T10:20:36.321Z,23.10
2023-01-20T10:23:23.691Z,20.90
2023-01-20T10:25:53.014Z,24.63
2023-01-20T10:28:25.694Z,20.17
2023-01-20T10:30:52.874Z,21.73
2023-01-20T10:33:24.003Z,25.27
2023-01-20T10:35:53.174Z,19.20
2023-01-20T10:38:39.175Z,20.43
2023-01-20T10:41:19.763Z,22.67
2023-01-20T10:43:47.761Z,22.77
2023-01-20T10:46:27.202Z,20.37
2023-01-20T10:48:57.180Z,22.67
2023-01-20T10:51:33.519Z,29.87
2023-01-20T10:54:06.351Z,22.33
2023-01-20T10:56:36.422Z,18.77
2023-01-20T10:59:08.369Z,16.97
2023-01-20T11:01:36.336Z,18.80
2023-01-20T11:04:03.440Z,22.93
2023-01-20T11:06:30.530Z,21.67
2023-01-20T11:08:57.755Z,19.03
2023-01-20T11:11:25.586Z,25.03
2023-01-20T11:13:53.444Z,22.10
2023-01-20T11:16:25.339Z,24.23
2023-01-20T11:19:11.774Z,20.57
2023-01-20T11:21:40.155Z,25.33
2023-01-20T11:24:32.738Z,23.13
2023-01-20T11:27:04.339Z,20.23
2023-01-20T11:29:31.784Z,22.03
2023-01-20T11:31:59.647Z,27.07
2023-01-20T11:34:27.441Z,24.97
2023-01-20T11:37:03.701Z,19.93
2023-01-20T11:39:34.884Z,25.87
2023-01-20T11:42:12.016Z,21.17
2023-01-20T11:44:42.547Z,22.43
2023-01-20T11:47:36.393Z,28.90
2023-01-20T11:50:09.429Z,30.23
2023-01-20T11:52:40.509Z,34.60
2023-01-20T11:55:08.193Z,26.97
2023-01-20T11:57:35.375Z,29.67
2023-01-20T12:00:02.842Z,31.27
2023-01-20T12:02:29.885Z,25.87
2023-01-20T12:05:02.965Z,25.93
2023-01-20T12:07:35.212Z,25.07
2023-01-20T12:10:05.301Z,23.50
2023-01-20T12:12:40.549Z,25.33
2023-01-20T12:15:13.477Z,24.90
2023-01-20T12:17:42.835Z,27.87
2023-01-20T12:20:17.540Z,28.07
2023-01-20T12:22:49.008Z,31.07
2023-01-20T12:25:21.188Z,35.93
2023-01-20T12:27:50.891Z,29.90
2023-01-20T12:30:33.346Z,25.80
2023-01-20T12:33:00.462Z,33.23
2023-01-20T12:35:30.048Z,25.27
2023-01-20T12:38:02.057Z,31.37
2023-01-20T12:40:34.896Z,28.17
2023-01-20T12:43:22.068Z,29.57
2023-01-20T12:46:04.900Z,27.17
2023-01-20T12:48:58.101Z,33.03
2023-01-20T12:51:50.521Z,27.10
2023-01-20T12:54:17.582Z,29.23
2023-01-20T12:56:50.624Z,26.57
2023-01-20T12:59:46.820Z,34.20
2023-01-20T13:02:18.521Z,30.30
2023-01-20T13:04:54.555Z,28.77
2023-01-20T13:07:24.432Z,36.17
2023-01-20T13:10:00.290Z,30.90
2023-01-20T13:12:41.370Z,32.40
2023-01-20T13:15:17.296Z,29.83
2023-01-20T13:18:02.911Z,29.53
2023-01-20T13:20:31.244Z,40.70
2023-01-20T13:23:02.317Z,30.13
2023-01-20T13:25:29.601Z,29.23
2023-01-20T13:27:56.904Z,30.03
2023-01-20T13:30:42.938Z,30.20
2023-01-20T13:33:16.155Z,27.63
2023-01-20T13:35:43.187Z,33.63
2023-01-20T13:38:19.223Z,30.90
2023-01-20T13:40:46.321Z,33.50
2023-01-20T13:43:25.526Z,34.97
2023-01-20T13:46:18.700Z,31.87
2023-01-20T13:49:04.343Z,36.40
2023-01-20T13:51:37.539Z,31.57
2023-01-20T13:54:23.144Z,31.27
2023-01-20T13:56:50.219Z,28.13
2023-01-20T13:59:17.296Z,23.77
2023-01-20T14:01:44.491Z,28.37
2023-01-20T14:04:16.087Z,28.13
2023-01-20T14:06:51.334Z,32.07
2023-01-20T14:09:20.202Z,35.53
2023-01-20T14:11:54.594Z,29.97
2023-01-20T14:14:25.752Z,28.43
2023-01-20T14:16:53.300Z,32.63
2023-01-20T14:19:20.358Z,30.30
2023-01-20T14:21:51.021Z,34.63
2023-01-20T14:24:34.251Z,31.03
2023-01-20T14:27:12.733Z,27.93
2023-01-20T14:29:39.906Z,27.37
2023-01-20T14:32:25.718Z,28.97
2023-01-20T14:34:56.713Z,22.50
2023-01-20T14:37:28.261Z,25.73
2023-01-20T14:39:58.458Z,24.57
2023-01-20T14:42:26.258Z,32.37
2023-01-20T14:44:54.646Z,24.23
2023-01-20T14:47:22.907Z,29.87
2023-01-20T14:49:51.405Z,25.33
2023-01-20T14:52:23.333Z,23.70
2023-01-20T14:54:50.529Z,22.63
2023-01-20T14:57:20.808Z,25.07
2023-01-20T14:59:49.088Z,21.67
2023-01-20T15:02:28.276Z,25.87
2023-01-20T15:04:56.064Z,28.97
2023-01-20T15:07:24.317Z,24.70
2023-01-20T15:09:54.330Z,25.87
2023-01-20T15:12:35.413Z,30.37
2023-01-20T15:15:18.003Z,20.87
2023-01-20T15:18:04.591Z,23.87
2023-01-20T15:20:32.957Z,25.87
2023-01-20T15:23:00.704Z,23.73
2023-01-20T15:25:28.824Z,23.57
2023-01-20T15:27:56.731Z,33.60
2023-01-20T15:30:27.389Z,27.70
2023-01-20T15:32:55.467Z,28.23
2023-01-20T15:35:25.104Z,27.70
2023-01-20T15:37:52.868Z,28.10
2023-01-20T15:40:21.138Z,27.80
2023-01-20T15:42:48.856Z,28.30
2023-01-20T15:45:16.526Z,24.17
2023-01-20T15:47:44.632Z,35.60
2023-01-20T15:50:22.559Z,28.33
2023-01-20T15:52:49.690Z,29.87
2023-01-20T15:55:17.934Z,25.37
2023-01-20T15:57:45.958Z,31.97
2023-01-20T16:00:20.607Z,28.87
2023-01-20T16:02:47.748Z,30.50
2023-01-20T16:05:17.410Z,28.47
2023-01-20T16:07:46.923Z,28.67
2023-01-20T16:10:16.239Z,32.17
2023-01-20T16:12:43.795Z,31.03
2023-01-20T16:15:15.238Z,30.63
2023-01-20T16:17:42.349Z,29.83
2023-01-20T16:20:19.516Z,32.20
2023-01-20T16:22:46.530Z,32.30
2023-01-20T16:25:13.642Z,31.67
2023-01-20T16:27:40.737Z,23.47
2023-01-20T16:30:08.102Z,23.77
2023-01-20T16:32:35.191Z,28.97
2023-01-20T16:35:02.237Z,22.27
2023-01-20T16:37:29.291Z,23.20
2023-01-20T16:39:56.349Z,33.30
2023-01-20T16:42:23.406Z,32.77
2023-01-20T16:44:50.525Z,27.60
2023-01-20T16:47:17.639Z,25.30
2023-01-20T16:49:44.686Z,22.10
2023-01-20T16:52:13.815Z,20.67
2023-01-20T16:54:40.866Z,19.97
2023-01-20T16:57:07.967Z,19.70
2023-01-20T16:59:35.290Z,20.33
2023-01-20T17:02:02.532Z,19.07
2023-01-20T17:04:30.463Z,20.27
2023-01-20T17:06:57.554Z,22.37
2023-01-20T17:09:24.593Z,20.07
2023-01-20T17:11:51.682Z,18.90
2023-01-20T17:14:18.766Z,21.07
2023-01-20T17:16:45.930Z,20.37
2023-01-20T17:19:13.260Z,22.70
2023-01-20T17:21:40.513Z,16.57
2023-01-20T17:24:07.848Z,21.57
2023-01-20T17:26:36.962Z,20.90
2023-01-20T17:29:05.232Z,23.43
2023-01-20T17:31:34.414Z,22.20
2023-01-20T17:34:01.748Z,25.73
2023-01-20T17:36:29.601Z,27.93
2023-01-20T17:38:56.693Z,23.93
2023-01-20T17:41:23.809Z,20.70
2023-01-20T17:43:50.837Z,20.93
2023-01-20T17:46:21.248Z,22.47
2023-01-20T17:48:48.716Z,20.93
2023-01-20T17:51:17.088Z,23.73
2023-01-20T17:53:44.739Z,25.20
2023-01-20T17:56:13.589Z,22.30
2023-01-20T17:58:41.927Z,31.40
2023-01-20T18:01:10.145Z,18.63
2023-01-20T18:03:38.870Z,24.67
2023-01-20T18:06:07.580Z,21.53
2023-01-20T18:08:35.070Z,22.90
2023-01-20T18:11:03.144Z,21.20
2023-01-20T18:13:30.291Z,21.30
2023-01-20T18:15:57.429Z,16.53
2023-01-20T18:18:24.743Z,18.10
2023-01-20T18:20:51.875Z,22.90
2023-01-20T18:23:18.906Z,17.27
2023-01-20T18:25:45.994Z,17.97
2023-01-20T18:28:13.364Z,17.70
2023-01-20T18:30:40.552Z,21.60
2023-01-20T18:33:07.755Z,24.13
2023-01-20T18:35:34.791Z,30.53
2023-01-20T18:38:02.207Z,24.33
2023-01-20T18:40:29.250Z,21.80
2023-01-20T18:42:56.390Z,26.17
2023-01-20T18:45:23.550Z,24.47
2023-01-20T18:47:50.762Z,29.00
2023-01-20T18:50:18.260Z,30.43
2023-01-20T18:52:45.449Z,29.13
2023-01-20T18:55:12.491Z,31.67
2023-01-20T18:57:39.545Z,24.60
2023-01-20T19:00:06.916Z,27.97
2023-01-20T19:02:34.298Z,24.13
2023-01-20T19:05:01.384Z,25.30
2023-01-20T19:07:28.429Z,26.27
2023-01-20T19:09:55.479Z,27.03
2023-01-20T19:12:22.515Z,26.87
2023-01-20T19:14:51.223Z,30.43
2023-01-20T19:17:18.283Z,27.10
2023-01-20T19:19:49.447Z,26.17
2023-01-20T19:22:16.622Z,22.90
2023-01-20T19:24:43.742Z,28.33
2023-01-20T19:27:10.799Z,22.03
2023-01-20T19:29:40.909Z,19.60
2023-01-20T19:32:08.452Z,19.63
2023-01-20T19:34:35.862Z,20.57
2023-01-20T19:37:02.934Z,21.10
2023-01-20T19:39:30.030Z,21.23
2023-01-20T19:41:58.296Z,20.33
2023-01-20T19:44:27.624Z,25.33
2023-01-20T19:46:55.714Z,19.90
2023-01-20T19:49:22.809Z,21.43
2023-01-20T19:51:49.901Z,18.10
2023-01-20T19:54:17.331Z,14.67
2023-01-20T19:56:44.403Z,16.77
2023-01-20T19:59:12.288Z,18.07
2023-01-20T20:01:40.244Z,13.40
2023-01-20T20:04:08.547Z,17.80
2023-01-20T20:06:35.660Z,15.80
2023-01-20T20:09:07.186Z,19.83
2023-01-20T20:11:34.619Z,14.07
2023-01-20T20:14:02.705Z,13.93
2023-01-20T20:16:31.230Z,13.17
2023-01-20T20:18:58.713Z,14.67
2023-01-20T20:21:26.235Z,19.27
2023-01-20T20:23:54.795Z,16.67
2023-01-20T20:26:22.704Z,15.97
2023-01-20T20:28:51.092Z,18.13
2023-01-20T20:31:18.658Z,16.03
2023-01-20T20:33:49.083Z,19.87
2023-01-20T20:36:16.336Z,16.30
2023-01-20T20:38:43.640Z,25.03
2023-01-20T20:41:10.813Z,18.60
2023-01-20T20:43:38.627Z,25.77
2023-01-20T20:46:07.270Z,20.83
2023-01-20T20:48:35.204Z,19.83
2023-01-20T20:51:06.254Z,16.93
2023-01-20T20:53:33.532Z,21.43
2023-01-20T20:56:03.990Z,19.20
2023-01-20T20:58:31.912Z,18.07
2023-01-20T21:01:08.892Z,17.03
2023-01-20T21:03:36.028Z,18.40
2023-01-20T21:06:03.513Z,21.97
2023-01-20T21:08:31.014Z,20.00
2023-01-20T21:11:01.614Z,19.67
2023-01-20T21:13:28.919Z,23.77
2023-01-20T21:15:59.390Z,16.40
2023-01-20T21:18:29.775Z,24.40
2023-01-20T21:21:01.304Z,17.03
2023-01-20T21:23:29.001Z,23.60
2023-01-20T21:26:02.577Z,21.07
2023-01-20T21:28:30.252Z,19.60
2023-01-20T21:30:57.385Z,18.37
2023-01-20T21:33:24.599Z,19.67
2023-01-20T21:35:51.678Z,25.00
2023-01-20T21:38:18.915Z,21.63
2023-01-20T21:40:59.738Z,16.43
2023-01-20T21:43:49.733Z,14.17
2023-01-20T21:46:17.011Z,17.80
2023-01-20T21:49:02.963Z,16.73
2023-01-20T21:51:49.018Z,18.63
2023-01-20T21:54:16.069Z,17.17
2023-01-20T21:56:43.258Z,14.27
2023-01-20T21:59:10.420Z,15.33
2023-01-20T22:01:37.763Z,16.20
2023-01-20T22:04:04.917Z,18.70
2023-01-20T22:06:32.107Z,17.30
2023-01-20T22:08:59.655Z,14.83
2023-01-20T22:11:27.315Z,18.90
2023-01-20T22:13:55.574Z,18.37
2023-01-20T22:16:23.238Z,23.23
2023-01-20T22:18:50.793Z,13.77
2023-01-20T22:21:17.901Z,19.20
2023-01-20T22:23:45.010Z,18.53
2023-01-20T22:26:12.163Z,18.63
2023-01-20T22:28:42.310Z,18.13
2023-01-20T22:31:11.045Z,17.50
2023-01-20T22:33:38.160Z,16.80
2023-01-20T22:36:05.704Z,19.00
2023-01-20T22:38:34.033Z,19.20
2023-01-20T22:41:07.747Z,17.20
2023-01-20T22:43:35.178Z,15.37
2023-01-20T22:46:03.305Z,14.90
2023-01-20T22:48:34.512Z,15.50
2023-01-20T22:51:09.058Z,13.43
2023-01-20T22:53:36.491Z,17.57
2023-01-20T22:56:08.120Z,15.27
2023-01-20T22:58:35.252Z,14.93
2023-01-20T23:01:02.519Z,13.83
2023-01-20T23:03:29.892Z,12.67
2023-01-20T23:05:58.533Z,14.73
2023-01-20T23:08:26.498Z,14.23
2023-01-20T23:10:57.597Z,13.10
2023-01-20T23:13:24.781Z,13.43
2023-01-20T23:15:51.916Z,12.97
2023-01-20T23:18:19.644Z,13.50
2023-01-20T23:20:50.459Z,11.97
2023-01-20T23:23:18.143Z,12.40
2023-01-20T23:25:45.388Z,13.80
2023-01-20T23:28:12.628Z,14.60
2023-01-20T23:30:40.201Z,12.83
2023-01-20T23:33:07.348Z,14.97
2023-01-20T23:35:38.554Z,14.43
2023-01-20T23:38:08.968Z,14.17
2023-01-20T23:40:36.284Z,13.50
2023-01-20T23:43:03.434Z,13.90
2023-01-20T23:45:30.639Z,11.83
2023-01-20T23:47:57.710Z,11.90
2023-01-20T23:50:24.818Z,13.83
2023-01-20T23:52:51.911Z,10.13
2023-01-20T23:55:19.055Z,12.43
2023-01-20T23:57:46.084Z,12.93
